createdAt,value
2023-02-10T00:00:21.574Z,1028.93
2023-02-10T00:01:21.561Z,1028.96
2023-02-10T00:02:21.346Z,1028.94
2023-02-10T00:03:21.317Z,1028.91
2023-02-10T00:04:21.606Z,1028.90
2023-02-10T00:05:21.332Z,1028.90
2023-02-10T00:06:21.185Z,1028.95
2023-02-10T00:07:21.152Z,1028.95
2023-02-10T00:08:21.110Z,1028.97
2023-02-10T00:09:21.089Z,1028.99
2023-02-10T00:10:21.109Z,1029.02
2023-02-10T00:11:21.014Z,1029.02
2023-02-10T00:12:20.972Z,1029.00
2023-02-10T00:13:20.931Z,1029.01
2023-02-10T00:14:20.889Z,1029.04
2023-02-10T00:15:20.859Z,1029.02
2023-02-10T00:16:20.960Z,1029.02
2023-02-10T00:17:20.779Z,1029.03
2023-02-10T00:18:20.725Z,1028.99
2023-02-10T00:19:20.707Z,1028.98
2023-02-10T00:20:20.703Z,1028.97
2023-02-10T00:21:20.679Z,1028.98
2023-02-10T00:22:20.632Z,1028.99
2023-02-10T00:23:20.564Z,1028.95
2023-02-10T00:24:20.507Z,1028.95
2023-02-10T00:25:20.470Z,1028.94
2023-02-10T00:26:20.433Z,1028.97
2023-02-10T00:27:20.456Z,1028.96
2023-02-10T00:28:20.382Z,1028.94
2023-02-10T00:29:20.335Z,1028.94
2023-02-10T00:30:20.288Z,1028.92
2023-02-10T00:31:20.301Z,1028.95
2023-02-10T00:32:20.262Z,1028.91
2023-02-10T00:33:20.921Z,1028.92
2023-02-10T00:34:20.130Z,1028.94
2023-02-10T00:35:20.093Z,1028.95
2023-02-10T00:36:20.060Z,1028.94
2023-02-10T00:37:20.122Z,1028.92
2023-02-10T00:38:19.974Z,1028.96
2023-02-10T00:39:19.937Z,1028.95
2023-02-10T00:40:19.901Z,1028.94
2023-02-10T00:41:19.873Z,1028.95
2023-02-10T00:42:19.828Z,1029.02
2023-02-10T00:43:19.866Z,1029.04
2023-02-10T00:44:19.756Z,1029.00
2023-02-10T00:45:19.769Z,1029.08
2023-02-10T00:46:19.795Z,1029.05
2023-02-10T00:47:19.636Z,1029.09
2023-02-10T00:48:19.596Z,1029.06
2023-02-10T00:49:19.731Z,1029.09
2023-02-10T00:50:19.527Z,1029.11
2023-02-10T00:51:19.491Z,1029.13
2023-02-10T00:52:19.456Z,1029.12
2023-02-10T00:53:19.432Z,1029.17
2023-02-10T00:54:19.376Z,1029.14
2023-02-10T00:55:19.397Z,1029.14
2023-02-10T00:56:19.302Z,1029.13
2023-02-10T00:57:19.267Z,1029.16
2023-02-10T00:58:19.227Z,1029.17
2023-02-10T00:59:19.181Z,1029.15
2023-02-10T01:00:19.151Z,1029.15
2023-02-10T01:01:19.173Z,1029.14
2023-02-10T01:02:19.065Z,1029.13
2023-02-10T01:03:19.124Z,1029.15
2023-02-10T01:04:18.998Z,1029.12
2023-02-10T01:05:18.961Z,1029.18
2023-02-10T01:06:18.914Z,1029.19
2023-02-10T01:07:18.963Z,1029.19
2023-02-10T01:08:18.843Z,1029.19
2023-02-10T01:09:18.806Z,1029.15
2023-02-10T01:10:18.767Z,1029.18
2023-02-10T01:11:18.732Z,1029.18
2023-02-10T01:12:18.693Z,1029.19
2023-02-10T01:13:18.718Z,1029.20
2023-02-10T01:14:18.607Z,1029.18
2023-02-10T01:15:18.565Z,1029.13
2023-02-10T01:16:18.616Z,1029.19
2023-02-10T01:17:18.512Z,1029.16
2023-02-10T01:18:18.461Z,1029.18
2023-02-10T01:19:18.480Z,1029.16
2023-02-10T01:20:18.388Z,1029.15
2023-02-10T01:21:18.352Z,1029.21
2023-02-10T01:22:19.520Z,1029.19
2023-02-10T01:23:18.268Z,1029.19
2023-02-10T01:24:18.237Z,1029.19
2023-02-10T01:25:18.244Z,1029.24
2023-02-10T01:26:18.153Z,1029.24
2023-02-10T01:27:18.106Z,1029.23
2023-02-10T01:28:18.110Z,1029.25
2023-02-10T01:29:18.038Z,1029.24
2023-02-10T01:30:17.994Z,1029.20
2023-02-10T01:31:18.038Z,1029.20
2023-02-10T01:32:17.928Z,1029.21
2023-02-10T01:33:17.879Z,1029.18
2023-02-10T01:34:17.854Z,1029.16
2023-02-10T01:35:17.796Z,1029.15
2023-02-10T01:36:17.770Z,1029.18
2023-02-10T01:37:17.780Z,1029.16
2023-02-10T01:38:17.698Z,1029.19
2023-02-10T01:39:17.641Z,1029.19
2023-02-10T01:40:17.604Z,1029.22
2023-02-10T01:41:17.583Z,1029.23
2023-02-10T01:42:17.572Z,1029.24
2023-02-10T01:43:17.547Z,1029.26
2023-02-10T01:44:17.457Z,1029.25
2023-02-10T01:45:17.442Z,1029.26
2023-02-10T01:46:17.398Z,1029.30
2023-02-10T01:47:17.335Z,1029.25
2023-02-10T01:48:17.304Z,1029.25
2023-02-10T01:49:17.326Z,1029.25
2023-02-10T01:50:17.228Z,1029.25
2023-02-10T01:51:17.176Z,1029.28
2023-02-10T01:52:17.139Z,1029.28
2023-02-10T01:53:17.115Z,1029.27
2023-02-10T01:54:17.123Z,1029.24
2023-02-10T01:55:17.033Z,1029.24
2023-02-10T01:56:16.989Z,1029.23
2023-02-10T01:57:17.010Z,1029.17
2023-02-10T01:58:16.903Z,1029.15
2023-02-10T01:59:16.864Z,1029.13
2023-02-10T02:00:16.830Z,1029.12
2023-02-10T02:01:16.850Z,1029.16
2023-02-10T02:02:16.848Z,1029.15
2023-02-10T02:03:16.726Z,1029.12
2023-02-10T02:04:16.676Z,1029.11
2023-02-10T02:05:16.644Z,1029.12
2023-02-10T02:06:16.592Z,1029.11
2023-02-10T02:07:16.549Z,1029.15
2023-02-10T02:08:16.581Z,1029.08
2023-02-10T02:09:16.480Z,1029.10
2023-02-10T02:10:16.462Z,1029.08
2023-02-10T02:11:16.412Z,1029.08
2023-02-10T02:12:16.369Z,1029.11
2023-02-10T02:13:16.320Z,1029.05
2023-02-10T02:14:16.337Z,1029.07
2023-02-10T02:15:16.264Z,1029.07
2023-02-10T02:16:16.225Z,1029.09
2023-02-10T02:17:16.168Z,1029.06
2023-02-10T02:18:16.129Z,1029.12
2023-02-10T02:19:16.084Z,1029.13
2023-02-10T02:20:16.121Z,1029.17
2023-02-10T02:21:16.008Z,1029.16
2023-02-10T02:22:15.968Z,1029.16
2023-02-10T02:23:15.931Z,1029.16
2023-02-10T02:24:15.895Z,1029.18
2023-02-10T02:25:15.854Z,1029.19
2023-02-10T02:26:15.865Z,1029.19
2023-02-10T02:27:15.778Z,1029.20
2023-02-10T02:28:15.776Z,1029.23
2023-02-10T02:29:15.695Z,1029.22
2023-02-10T02:30:15.677Z,1029.20
2023-02-10T02:31:15.614Z,1029.27
2023-02-10T02:32:15.626Z,1029.26
2023-02-10T02:33:15.539Z,1029.23
2023-02-10T02:34:15.503Z,1029.29
2023-02-10T02:35:15.462Z,1029.30
2023-02-10T02:36:15.425Z,1029.34
2023-02-10T02:37:15.440Z,1029.32
2023-02-10T02:38:15.346Z,1029.30
2023-02-10T02:39:15.334Z,1029.36
2023-02-10T02:40:15.274Z,1029.37
2023-02-10T02:41:15.234Z,1029.32
2023-02-10T02:42:15.249Z,1029.38
2023-02-10T02:43:15.153Z,1029.33
2023-02-10T02:44:15.113Z,1029.33
2023-02-10T02:45:15.083Z,1029.34
2023-02-10T02:46:15.110Z,1029.30
2023-02-10T02:47:15.027Z,1029.37
2023-02-10T02:48:14.948Z,1029.33
2023-02-10T02:49:14.910Z,1029.35
2023-02-10T02:50:14.904Z,1029.35
2023-02-10T02:51:14.831Z,1029.38
2023-02-10T02:52:14.847Z,1029.34
2023-02-10T02:53:14.758Z,1029.38
2023-02-10T02:54:14.714Z,1029.40
2023-02-10T02:55:14.682Z,1029.40
2023-02-10T02:56:14.636Z,1029.40
2023-02-10T02:57:14.682Z,1029.36
2023-02-10T02:58:14.585Z,1029.38
2023-02-10T02:59:14.529Z,1029.38
2023-02-10T03:00:14.478Z,1029.39
2023-02-10T03:01:14.484Z,1029.37
2023-02-10T03:02:14.408Z,1029.36
2023-02-10T03:03:14.430Z,1029.37
2023-02-10T03:04:14.404Z,1029.37
2023-02-10T03:05:14.285Z,1029.42
2023-02-10T03:06:14.284Z,1029.41
2023-02-10T03:07:14.208Z,1029.43
2023-02-10T03:08:14.163Z,1029.44
2023-02-10T03:09:14.180Z,1029.45
2023-02-10T03:10:14.100Z,1029.45
2023-02-10T03:11:14.051Z,1029.49
2023-02-10T03:12:14.017Z,1029.49
2023-02-10T03:13:13.970Z,1029.51
2023-02-10T03:14:13.989Z,1029.56
2023-02-10T03:15:13.891Z,1029.57
2023-02-10T03:16:13.910Z,1029.56
2023-02-10T03:17:13.820Z,1029.54
2023-02-10T03:18:13.777Z,1029.55
2023-02-10T03:19:13.746Z,1029.56
2023-02-10T03:20:13.757Z,1029.54
2023-02-10T03:21:13.667Z,1029.57
2023-02-10T03:22:13.629Z,1029.56
2023-02-10T03:23:13.583Z,1029.53
2023-02-10T03:24:13.537Z,1029.55
2023-02-10T03:25:13.538Z,1029.56
2023-02-10T03:26:13.515Z,1029.58
2023-02-10T03:27:13.424Z,1029.56
2023-02-10T03:28:13.961Z,1029.57
2023-02-10T03:29:13.341Z,1029.54
2023-02-10T03:30:13.299Z,1029.54
2023-02-10T03:31:13.347Z,1029.49
2023-02-10T03:32:13.279Z,1029.50
2023-02-10T03:33:13.186Z,1029.52
2023-02-10T03:34:13.152Z,1029.53
2023-02-10T03:35:13.103Z,1029.54
2023-02-10T03:36:13.061Z,1029.52
2023-02-10T03:37:13.092Z,1029.52
2023-02-10T03:38:12.983Z,1029.57
2023-02-10T03:39:12.959Z,1029.57
2023-02-10T03:40:12.911Z,1029.62
2023-02-10T03:41:12.875Z,1029.57
2023-02-10T03:42:12.894Z,1029.59
2023-02-10T03:43:12.793Z,1029.58
2023-02-10T03:44:12.744Z,1029.61
2023-02-10T03:45:12.705Z,1029.66
2023-02-10T03:46:12.702Z,1029.68
2023-02-10T03:47:12.634Z,1029.71
2023-02-10T03:48:12.638Z,1029.74
2023-02-10T03:49:12.550Z,1029.76
2023-02-10T03:50:12.565Z,1029.73
2023-02-10T03:51:12.471Z,1029.76
2023-02-10T03:52:12.429Z,1029.72
2023-02-10T03:53:12.412Z,1029.71
2023-02-10T03:54:12.367Z,1029.70
2023-02-10T03:55:12.365Z,1029.73
2023-02-10T03:56:12.300Z,1029.76
2023-02-10T03:57:12.244Z,1029.75
2023-02-10T03:58:12.201Z,1029.73
2023-02-10T03:59:12.168Z,1029.76
2023-02-10T04:00:12.122Z,1029.77
2023-02-10T04:01:12.204Z,1029.80
2023-02-10T04:02:12.041Z,1029.80
2023-02-10T04:03:12.037Z,1029.73
2023-02-10T04:04:11.972Z,1029.74
2023-02-10T04:05:11.929Z,1029.68
2023-02-10T04:06:11.888Z,1029.65
2023-02-10T04:07:11.917Z,1029.70
2023-02-10T04:08:11.810Z,1029.69
2023-02-10T04:09:11.773Z,1029.64
2023-02-10T04:10:11.745Z,1029.67
2023-02-10T04:11:11.692Z,1029.61
2023-02-10T04:12:11.705Z,1029.62
2023-02-10T04:13:11.621Z,1029.61
2023-02-10T04:14:11.586Z,1029.54
2023-02-10T04:15:11.549Z,1029.53
2023-02-10T04:16:11.550Z,1029.47
2023-02-10T04:17:11.530Z,1029.49
2023-02-10T04:18:11.418Z,1029.50
2023-02-10T04:19:11.380Z,1029.50
2023-02-10T04:20:11.346Z,1029.46
2023-02-10T04:21:11.301Z,1029.44
2023-02-10T04:22:11.260Z,1029.51
2023-02-10T04:23:11.285Z,1029.50
2023-02-10T04:24:11.190Z,1029.49
2023-02-10T04:25:11.146Z,1029.48
2023-02-10T04:26:11.110Z,1029.47
2023-02-10T04:27:11.081Z,1029.43
2023-02-10T04:28:11.081Z,1029.44
2023-02-10T04:29:11.045Z,1029.45
2023-02-10T04:30:10.979Z,1029.47
2023-02-10T04:31:11.081Z,1029.42
2023-02-10T04:32:10.878Z,1029.44
2023-02-10T04:33:10.847Z,1029.42
2023-02-10T04:34:10.803Z,1029.46
2023-02-10T04:35:10.849Z,1029.57
2023-02-10T04:36:10.720Z,1029.50
2023-02-10T04:37:10.685Z,1029.49
2023-02-10T04:38:10.648Z,1029.45
2023-02-10T04:39:10.600Z,1029.49
2023-02-10T04:40:10.566Z,1029.53
2023-02-10T04:41:10.609Z,1029.52
2023-02-10T04:42:10.486Z,1029.52
2023-02-10T04:43:10.452Z,1029.50
2023-02-10T04:44:10.417Z,1029.49
2023-02-10T04:45:10.385Z,1029.48
2023-02-10T04:46:10.339Z,1029.57
2023-02-10T04:47:10.371Z,1029.54
2023-02-10T04:48:10.260Z,1029.56
2023-02-10T04:49:10.217Z,1029.57
2023-02-10T04:50:10.203Z,1029.66
2023-02-10T04:51:10.143Z,1029.63
2023-02-10T04:52:10.114Z,1029.68
2023-02-10T04:53:10.185Z,1029.67
2023-02-10T04:54:10.032Z,1029.68
2023-02-10T04:55:10.001Z,1029.66
2023-02-10T04:56:09.956Z,1029.66
2023-02-10T04:57:09.913Z,1029.67
2023-02-10T04:58:09.885Z,1029.64
2023-02-10T04:59:09.901Z,1029.58
2023-02-10T05:00:09.794Z,1029.61
2023-02-10T05:01:09.856Z,1029.68
2023-02-10T05:02:09.772Z,1029.67
2023-02-10T05:03:09.703Z,1029.62
2023-02-10T05:04:09.636Z,1029.60
2023-02-10T05:05:09.681Z,1029.62
2023-02-10T05:06:09.576Z,1029.68
2023-02-10T05:07:09.522Z,1029.65
2023-02-10T05:08:09.493Z,1029.70
2023-02-10T05:09:09.451Z,1029.67
2023-02-10T05:10:09.414Z,1029.70
2023-02-10T05:11:09.419Z,1029.72
2023-02-10T05:12:09.957Z,1029.75
2023-02-10T05:13:09.332Z,1029.77
2023-02-10T05:14:09.270Z,1029.82
2023-02-10T05:15:09.219Z,1029.74
2023-02-10T05:16:09.213Z,1029.75
2023-02-10T05:17:09.207Z,1029.80
2023-02-10T05:18:09.106Z,1029.83
2023-02-10T05:19:09.061Z,1029.85
2023-02-10T05:20:09.033Z,1029.87
2023-02-10T05:21:08.998Z,1029.86
2023-02-10T05:22:08.959Z,1029.89
2023-02-10T05:23:08.958Z,1029.87
2023-02-10T05:24:08.880Z,1029.83
2023-02-10T05:25:08.840Z,1029.84
2023-02-10T05:26:08.790Z,1029.77
2023-02-10T05:27:08.763Z,1029.76
2023-02-10T05:28:08.741Z,1029.74
2023-02-10T05:29:08.735Z,1029.74
2023-02-10T05:30:08.640Z,1029.74
2023-02-10T05:31:08.644Z,1029.74
2023-02-10T05:32:08.641Z,1029.76
2023-02-10T05:33:08.531Z,1029.79
2023-02-10T05:34:08.503Z,1029.77
2023-02-10T05:35:08.518Z,1029.73
2023-02-10T05:36:08.421Z,1029.74
2023-02-10T05:37:08.373Z,1029.69
2023-02-10T05:38:08.333Z,1029.72
2023-02-10T05:39:08.309Z,1029.75
2023-02-10T05:40:08.267Z,1029.77
2023-02-10T05:41:08.286Z,1029.74
2023-02-10T05:42:08.175Z,1029.75
2023-02-10T05:43:08.158Z,1029.75
2023-02-10T05:44:08.104Z,1029.80
2023-02-10T05:45:08.083Z,1029.76
2023-02-10T05:46:08.045Z,1029.80
2023-02-10T05:47:08.057Z,1029.81
2023-02-10T05:48:07.963Z,1029.79
2023-02-10T05:49:07.932Z,1029.76
2023-02-10T05:50:07.951Z,1029.78
2023-02-10T05:51:07.842Z,1029.76
2023-02-10T05:52:07.855Z,1029.74
2023-02-10T05:53:07.773Z,1029.74
2023-02-10T05:54:07.728Z,1029.76
2023-02-10T05:55:07.681Z,1029.72
2023-02-10T05:56:07.644Z,1029.74
2023-02-10T05:57:07.660Z,1029.79
2023-02-10T05:58:07.571Z,1029.80
2023-02-10T05:59:07.541Z,1029.83
2023-02-10T06:00:07.505Z,1029.76
2023-02-10T06:01:07.461Z,1029.76
2023-02-10T06:02:07.496Z,1029.82
2023-02-10T06:03:09.401Z,1029.85
2023-02-10T06:04:07.334Z,1029.82
2023-02-10T06:05:07.309Z,1029.78
2023-02-10T06:06:07.268Z,1029.76
2023-02-10T06:07:07.223Z,1029.73
2023-02-10T06:08:07.274Z,1029.74
2023-02-10T06:09:07.220Z,1029.73
2023-02-10T06:10:07.133Z,1029.77
2023-02-10T06:11:07.064Z,1029.79
2023-02-10T06:12:07.077Z,1029.83
2023-02-10T06:13:06.994Z,1029.87
2023-02-10T06:14:07.025Z,1029.80
2023-02-10T06:15:06.911Z,1029.79
2023-02-10T06:16:06.889Z,1029.82
2023-02-10T06:17:06.846Z,1029.87
2023-02-10T06:18:06.810Z,1029.92
2023-02-10T06:19:06.774Z,1029.95
2023-02-10T06:20:06.819Z,1029.94
2023-02-10T06:21:06.687Z,1029.94
2023-02-10T06:22:06.648Z,1030.00
2023-02-10T06:23:06.607Z,1029.98
2023-02-10T06:24:06.571Z,1029.99
2023-02-10T06:25:06.528Z,1029.99
2023-02-10T06:26:06.540Z,1030.05
2023-02-10T06:27:06.466Z,1030.03
2023-02-10T06:28:06.447Z,1030.04
2023-02-10T06:29:06.378Z,1030.04
2023-02-10T06:30:06.342Z,1030.09
2023-02-10T06:31:06.343Z,1030.09
2023-02-10T06:32:06.294Z,1030.12
2023-02-10T06:33:06.223Z,1030.15
2023-02-10T06:34:06.180Z,1030.14
2023-02-10T06:35:06.152Z,1030.12
2023-02-10T06:36:06.227Z,1030.15
2023-02-10T06:37:06.069Z,1030.15
2023-02-10T06:38:06.078Z,1030.18
2023-02-10T06:39:06.017Z,1030.18
2023-02-10T06:40:05.942Z,1030.18
2023-02-10T06:41:05.911Z,1030.19
2023-02-10T06:42:05.871Z,1030.16
2023-02-10T06:43:05.832Z,1030.16
2023-02-10T06:44:05.825Z,1030.12
2023-02-10T06:45:05.746Z,1030.11
2023-02-10T06:46:05.788Z,1030.12
2023-02-10T06:47:05.670Z,1030.11
2023-02-10T06:48:05.630Z,1030.08
2023-02-10T06:49:05.662Z,1030.16
2023-02-10T06:50:05.553Z,1030.13
2023-02-10T06:51:05.512Z,1030.06
2023-02-10T06:52:16.321Z,1030.07
2023-02-10T06:53:05.438Z,1030.07
2023-02-10T06:54:05.406Z,1030.10
2023-02-10T06:55:05.416Z,1030.09
2023-02-10T06:56:05.319Z,1030.09
2023-02-10T06:57:05.291Z,1030.09
2023-02-10T06:58:05.232Z,1030.15
2023-02-10T06:59:05.213Z,1030.20
2023-02-10T07:00:05.186Z,1030.24
2023-02-10T07:01:05.192Z,1030.23
2023-02-10T07:02:05.152Z,1030.26
2023-02-10T07:03:05.066Z,1030.25
2023-02-10T07:04:05.004Z,1030.27
2023-02-10T07:05:04.958Z,1030.37
2023-02-10T07:06:04.982Z,1030.37
2023-02-10T07:07:04.892Z,1030.33
2023-02-10T07:08:05.748Z,1030.33
2023-02-10T07:09:04.822Z,1030.34
2023-02-10T07:10:04.768Z,1030.40
2023-02-10T07:11:04.855Z,1030.36
2023-02-10T07:12:04.747Z,1030.31
2023-02-10T07:13:04.660Z,1030.30
2023-02-10T07:14:04.618Z,1030.31
2023-02-10T07:15:04.576Z,1030.26
2023-02-10T07:16:04.555Z,1030.28
2023-02-10T07:17:04.568Z,1030.31
2023-02-10T07:18:04.467Z,1030.44
2023-02-10T07:19:04.429Z,1030.45
2023-02-10T07:20:04.389Z,1030.46
2023-02-10T07:21:04.345Z,1030.47
2023-02-10T07:22:04.376Z,1030.48
2023-02-10T07:23:04.274Z,1030.49
2023-02-10T07:24:04.237Z,1030.52
2023-02-10T07:25:04.201Z,1030.54
2023-02-10T07:26:04.152Z,1030.56
2023-02-10T07:27:04.118Z,1030.58
2023-02-10T07:28:04.138Z,1030.54
2023-02-10T07:29:04.044Z,1030.53
2023-02-10T07:30:04.009Z,1030.51
2023-02-10T07:31:04.124Z,1030.51
2023-02-10T07:32:03.929Z,1030.50
2023-02-10T07:33:03.961Z,1030.55
2023-02-10T07:34:03.845Z,1030.58
2023-02-10T07:35:03.807Z,1030.60
2023-02-10T07:36:03.784Z,1030.58
2023-02-10T07:37:03.735Z,1030.61
2023-02-10T07:38:03.720Z,1030.66
2023-02-10T07:39:03.740Z,1030.67
2023-02-10T07:40:03.636Z,1030.63
2023-02-10T07:41:03.578Z,1030.64
2023-02-10T07:42:03.553Z,1030.66
2023-02-10T07:43:03.491Z,1030.63
2023-02-10T07:44:03.516Z,1030.65
2023-02-10T07:45:03.428Z,1030.67
2023-02-10T07:46:03.408Z,1030.63
2023-02-10T07:47:03.349Z,1030.65
2023-02-10T07:48:03.310Z,1030.64
2023-02-10T07:49:03.348Z,1030.64
2023-02-10T07:50:03.233Z,1030.65
2023-02-10T07:51:03.200Z,1030.71
2023-02-10T07:52:03.195Z,1030.70
2023-02-10T07:53:03.120Z,1030.68
2023-02-10T07:54:03.082Z,1030.73
2023-02-10T07:55:03.087Z,1030.75
2023-02-10T07:56:02.990Z,1030.72
2023-02-10T07:57:02.954Z,1030.76
2023-02-10T07:58:02.934Z,1030.75
2023-02-10T07:59:02.893Z,1030.79
2023-02-10T08:00:02.923Z,1030.83
2023-02-10T08:01:02.816Z,1030.86
2023-02-10T08:02:02.840Z,1030.86
2023-02-10T08:03:02.726Z,1030.89
2023-02-10T08:04:02.698Z,1030.89
2023-02-10T08:05:02.752Z,1030.93
2023-02-10T08:06:02.674Z,1030.91
2023-02-10T08:07:02.574Z,1030.91
2023-02-10T08:08:02.546Z,1030.89
2023-02-10T08:09:02.512Z,1030.89
2023-02-10T08:10:02.465Z,1030.84
2023-02-10T08:11:02.489Z,1030.86
2023-02-10T08:12:02.395Z,1030.92
2023-02-10T08:13:02.377Z,1030.87
2023-02-10T08:14:02.313Z,1030.89
2023-02-10T08:15:02.276Z,1030.87
2023-02-10T08:16:02.275Z,1030.90
2023-02-10T08:17:02.259Z,1030.89
2023-02-10T08:18:02.162Z,1030.88
2023-02-10T08:19:02.128Z,1030.86
2023-02-10T08:20:02.102Z,1030.87
2023-02-10T08:21:03.021Z,1030.88
2023-02-10T08:22:02.012Z,1030.86
2023-02-10T08:23:02.026Z,1030.91
2023-02-10T08:24:01.939Z,1030.89
2023-02-10T08:25:01.909Z,1030.86
2023-02-10T08:26:01.875Z,1030.91
2023-02-10T08:27:01.829Z,1030.94
2023-02-10T08:28:01.816Z,1030.95
2023-02-10T08:29:01.790Z,1030.97
2023-02-10T08:30:01.702Z,1031.04
2023-02-10T08:31:01.832Z,1031.02
2023-02-10T08:32:01.631Z,1030.98
2023-02-10T08:33:01.610Z,1031.00
2023-02-10T08:34:01.562Z,1031.07
2023-02-10T08:35:01.661Z,1031.06
2023-02-10T08:36:01.503Z,1031.07
2023-02-10T08:37:01.480Z,1031.11
2023-02-10T08:38:01.414Z,1031.17
2023-02-10T08:39:02.793Z,1031.23
2023-02-10T08:40:01.429Z,1031.24
2023-02-10T08:41:01.292Z,1031.21
2023-02-10T08:42:01.262Z,1031.25
2023-02-10T08:43:01.216Z,1031.21
2023-02-10T08:44:01.196Z,1031.22
2023-02-10T08:45:01.152Z,1031.23
2023-02-10T08:46:01.173Z,1031.25
2023-02-10T08:47:01.085Z,1031.16
2023-02-10T08:48:01.028Z,1031.23
2023-02-10T08:49:00.991Z,1031.24
2023-02-10T08:50:00.961Z,1031.21
2023-02-10T08:51:00.926Z,1031.27
2023-02-10T08:52:00.932Z,1031.26
2023-02-10T08:53:00.850Z,1031.22
2023-02-10T08:54:00.819Z,1031.20
2023-02-10T08:55:00.785Z,1031.22
2023-02-10T08:56:00.937Z,1031.23
2023-02-10T08:57:00.690Z,1031.25
2023-02-10T08:58:00.701Z,1031.22
2023-02-10T08:59:00.640Z,1031.24
2023-02-10T09:00:00.599Z,1031.29
2023-02-10T09:01:00.542Z,1031.26
2023-02-10T09:02:00.592Z,1031.33
2023-02-10T09:03:00.519Z,1031.31
2023-02-10T09:04:00.516Z,1031.33
2023-02-10T09:05:09.872Z,1031.38
2023-02-10T09:06:00.357Z,1031.34
2023-02-10T09:07:00.981Z,1031.35
2023-02-10T09:08:00.296Z,1031.32
2023-02-10T09:09:00.263Z,1031.32
2023-02-10T09:10:00.274Z,1031.38
2023-02-10T09:11:00.263Z,1031.43
2023-02-10T09:12:00.998Z,1031.45
2023-02-10T09:13:00.115Z,1031.48
2023-02-10T09:14:00.093Z,1031.46
2023-02-10T09:15:00.025Z,1031.42
2023-02-10T09:16:01.023Z,1031.43
2023-02-10T09:16:59.951Z,1031.45
2023-02-10T09:17:59.925Z,1031.54
2023-02-10T09:18:59.886Z,1031.44
2023-02-10T09:19:59.845Z,1031.50
2023-02-10T09:20:59.862Z,1031.55
2023-02-10T09:21:59.792Z,1031.58
2023-02-10T09:22:59.740Z,1031.59
2023-02-10T09:23:59.701Z,1031.54
2023-02-10T09:24:59.661Z,1031.55
2023-02-10T09:25:59.646Z,1031.61
2023-02-10T09:26:59.695Z,1031.55
2023-02-10T09:27:59.633Z,1031.60
2023-02-10T09:28:59.526Z,1031.65
2023-02-10T09:29:59.499Z,1031.65
2023-02-10T09:30:59.493Z,1031.67
2023-02-10T09:31:59.481Z,1031.67
2023-02-10T09:32:59.495Z,1031.60
2023-02-10T09:33:59.368Z,1031.64
2023-02-10T09:34:59.402Z,1031.67
2023-02-10T09:35:59.347Z,1031.62
2023-02-10T09:36:59.469Z,1031.65
2023-02-10T09:37:59.206Z,1031.68
2023-02-10T09:38:59.175Z,1031.63
2023-02-10T09:39:59.133Z,1031.76
2023-02-10T09:40:59.228Z,1031.70
2023-02-10T09:41:59.070Z,1031.76
2023-02-10T09:42:59.032Z,1031.78
2023-02-10T09:43:58.984Z,1031.75
2023-02-10T09:44:58.958Z,1031.72
2023-02-10T09:45:58.949Z,1031.73
2023-02-10T09:46:58.967Z,1031.72
2023-02-10T09:47:58.843Z,1031.69
2023-02-10T09:48:58.826Z,1031.80
2023-02-10T09:49:58.819Z,1031.75
2023-02-10T09:50:58.748Z,1031.70
2023-02-10T09:51:58.714Z,1031.73
2023-02-10T09:57:51.556Z,1031.75
2023-02-10T09:58:33.310Z,1031.73
2023-02-10T09:59:33.303Z,1031.82
2023-02-10T10:00:34.903Z,1031.82
2023-02-10T10:01:33.221Z,1031.80
2023-02-10T10:02:33.183Z,1031.79
2023-02-10T10:03:33.183Z,1031.82
2023-02-10T10:04:33.102Z,1031.82
2023-02-10T10:05:33.061Z,1031.78
2023-02-10T10:06:33.048Z,1031.77
2023-02-10T10:07:32.999Z,1031.73
2023-02-10T10:08:33.001Z,1031.79
2023-02-10T10:09:32.925Z,1031.80
2023-02-10T10:10:32.903Z,1031.76
2023-02-10T10:11:32.850Z,1031.79
2023-02-10T10:12:32.810Z,1031.75
2023-02-10T10:13:32.779Z,1031.78
2023-02-10T10:14:32.791Z,1031.77
2023-02-10T10:15:32.715Z,1031.77
2023-02-10T10:16:32.766Z,1031.81
2023-02-10T10:17:32.628Z,1031.80
2023-02-10T10:18:32.606Z,1031.77
2023-02-10T10:19:32.562Z,1031.77
2023-02-10T10:20:34.067Z,1031.72
2023-02-10T10:21:32.489Z,1031.77
2023-02-10T10:22:32.467Z,1031.79
2023-02-10T10:23:32.424Z,1031.77
2023-02-10T10:24:32.386Z,1031.80
2023-02-10T10:25:33.953Z,1031.76
2023-02-10T10:26:36.546Z,1031.81
2023-02-10T10:27:32.278Z,1031.81
2023-02-10T10:28:32.395Z,1031.80
2023-02-10T10:29:32.222Z,1031.74
2023-02-10T10:30:32.279Z,1031.72
2023-02-10T10:31:32.180Z,1031.67
2023-02-10T10:32:32.181Z,1031.74
2023-02-10T10:33:32.085Z,1031.69
2023-02-10T10:34:32.107Z,1031.73
2023-02-10T10:35:32.012Z,1031.68
2023-02-10T10:36:31.964Z,1031.71
2023-02-10T10:37:31.940Z,1031.73
2023-02-10T10:38:31.900Z,1031.69
2023-02-10T10:39:31.934Z,1031.72
2023-02-10T10:40:31.825Z,1031.73
2023-02-10T10:41:31.800Z,1031.69
2023-02-10T10:42:31.765Z,1031.67
2023-02-10T10:43:31.728Z,1031.69
2023-02-10T10:44:31.696Z,1031.68
2023-02-10T10:45:31.779Z,1031.65
2023-02-10T10:46:31.629Z,1031.69
2023-02-10T10:47:31.582Z,1031.72
2023-02-10T10:48:31.545Z,1031.67
2023-02-10T10:49:31.508Z,1031.70
2023-02-10T10:50:31.476Z,1031.71
2023-02-10T10:51:31.519Z,1031.71
2023-02-10T10:52:31.417Z,1031.72
2023-02-10T10:53:31.376Z,1031.69
2023-02-10T10:54:31.336Z,1031.65
2023-02-10T10:55:31.316Z,1031.64
2023-02-10T10:56:31.285Z,1031.65
2023-02-10T10:57:31.292Z,1031.64
2023-02-10T10:58:31.209Z,1031.69
2023-02-10T10:59:31.159Z,1031.60
2023-02-10T11:00:31.145Z,1031.61
2023-02-10T11:01:31.169Z,1031.63
2023-02-10T11:02:31.098Z,1031.57
2023-02-10T11:03:31.102Z,1031.64
2023-02-10T11:04:30.992Z,1031.57
2023-02-10T11:05:31.033Z,1031.55
2023-02-10T11:06:30.926Z,1031.55
2023-02-10T11:07:30.884Z,1031.59
2023-02-10T11:08:30.957Z,1031.55
2023-02-10T11:09:30.812Z,1031.60
2023-02-10T11:10:30.786Z,1031.54
2023-02-10T11:11:37.887Z,1031.55
2023-02-10T11:12:30.715Z,1031.55
2023-02-10T11:13:30.672Z,1031.54
2023-02-10T11:14:30.643Z,1031.51
2023-02-10T11:15:37.393Z,1031.51
2023-02-10T11:16:30.619Z,1031.45
2023-02-10T11:17:30.601Z,1031.46
2023-02-10T11:18:30.509Z,1031.46
2023-02-10T11:19:37.628Z,1031.42
2023-02-10T11:20:30.441Z,1031.38
2023-02-10T11:21:30.396Z,1031.38
2023-02-10T11:22:30.430Z,1031.40
2023-02-10T11:23:30.325Z,1031.38
2023-02-10T11:24:30.301Z,1031.40
2023-02-10T11:25:30.291Z,1031.40
2023-02-10T11:26:30.214Z,1031.36
2023-02-10T11:27:30.243Z,1031.39
2023-02-10T11:28:30.174Z,1031.38
2023-02-10T11:29:30.116Z,1031.38
2023-02-10T11:30:30.197Z,1031.38
2023-02-10T11:31:30.141Z,1031.29
2023-02-10T11:32:30.092Z,1031.32
2023-02-10T11:33:29.968Z,1031.28
2023-02-10T11:34:29.961Z,1031.32
2023-02-10T11:35:29.899Z,1031.30
2023-02-10T11:36:29.862Z,1031.27
2023-02-10T11:37:29.833Z,1031.23
2023-02-10T11:38:29.869Z,1031.28
2023-02-10T11:39:29.773Z,1031.29
2023-02-10T11:40:29.717Z,1031.26
2023-02-10T11:41:29.815Z,1031.21
2023-02-10T11:42:29.653Z,1031.25
2023-02-10T11:43:29.689Z,1031.24
2023-02-10T11:44:29.639Z,1031.28
2023-02-10T11:45:35.893Z,1031.29
2023-02-10T11:46:29.610Z,1031.28
2023-02-10T11:47:29.480Z,1031.30
2023-02-10T11:48:29.433Z,1031.28
2023-02-10T11:49:29.446Z,1031.31
2023-02-10T11:50:29.377Z,1031.40
2023-02-10T11:51:29.444Z,1031.33
2023-02-10T11:52:29.297Z,1031.34
2023-02-10T11:53:29.263Z,1031.30
2023-02-10T11:54:29.216Z,1031.27
2023-02-10T11:55:29.207Z,1031.26
2023-02-10T11:56:29.224Z,1031.23
2023-02-10T11:57:29.139Z,1031.14
2023-02-10T11:58:29.083Z,1031.14
2023-02-10T11:59:29.038Z,1031.14
2023-02-10T12:00:29.019Z,1031.10
2023-02-10T12:01:28.979Z,1031.17
2023-02-10T12:02:29.055Z,1031.18
2023-02-10T12:03:28.915Z,1031.15
2023-02-10T12:04:28.870Z,1031.16
2023-02-10T12:05:28.956Z,1031.15
2023-02-10T12:06:37.155Z,1031.14
2023-02-10T12:07:28.762Z,1031.19
2023-02-10T12:08:28.781Z,1031.15
2023-02-10T12:09:28.725Z,1031.16